createdAt,value
2023-01-23T00:01:01.180Z,1.16
2023-01-23T00:03:27.604Z,1.18
2023-01-23T00:06:00.896Z,1.15
2023-01-23T00:08:27.863Z,1.14
2023-01-23T00:10:54.317Z,1.12
2023-01-23T00:13:21.337Z,1.15
2023-01-23T00:15:49.121Z,1.10
2023-01-23T00:18:16.148Z,1.07
2023-01-23T00:20:42.941Z,1.09
2023-01-23T00:23:10.914Z,1.07
2023-01-23T00:25:37.378Z,1.07
2023-01-23T00:28:04.501Z,1.03
2023-01-23T00:30:30.934Z,1.06
2023-01-23T00:32:57.346Z,1.06
2023-01-23T00:35:23.936Z,1.04
2023-01-23T00:37:50.395Z,1.03
2023-01-23T00:40:17.279Z,0.98
2023-01-23T00:42:43.969Z,1.00
2023-01-23T00:45:11.412Z,1.02
2023-01-23T00:47:37.834Z,1.00
2023-01-23T00:50:08.064Z,1.01
2023-01-23T00:52:35.223Z,1.02
2023-01-23T00:55:01.994Z,0.97
2023-01-23T00:57:28.640Z,0.95
2023-01-23T00:59:55.132Z,0.96
2023-01-23T01:02:21.571Z,0.93
2023-01-23T01:04:47.948Z,0.88
2023-01-23T01:07:14.432Z,0.85
2023-01-23T01:09:40.903Z,0.83
2023-01-23T01:12:07.408Z,0.79
2023-01-23T01:14:33.819Z,0.77
2023-01-23T01:17:00.366Z,0.73
2023-01-23T01:19:28.199Z,0.71
2023-01-23T01:21:54.654Z,0.67
2023-01-23T01:24:21.047Z,0.68
2023-01-23T01:26:49.621Z,0.63
2023-01-23T01:29:16.191Z,0.55
2023-01-23T01:31:43.002Z,0.56
2023-01-23T01:34:09.468Z,0.52
2023-01-23T01:36:35.929Z,0.45
2023-01-23T01:39:02.448Z,0.38
2023-01-23T01:41:28.826Z,0.39
2023-01-23T01:43:57.148Z,0.43
2023-01-23T01:46:28.356Z,0.47
2023-01-23T01:49:09.273Z,0.50
2023-01-23T01:51:58.254Z,0.51
2023-01-23T01:54:53.285Z,0.50
2023-01-23T01:57:25.466Z,0.50
2023-01-23T02:00:08.950Z,0.49
2023-01-23T02:02:39.086Z,0.54
2023-01-23T02:05:12.439Z,0.60
2023-01-23T02:07:44.635Z,0.62
2023-01-23T02:10:12.776Z,0.68
2023-01-23T02:12:41.382Z,0.68
2023-01-23T02:15:08.592Z,0.68
2023-01-23T02:17:36.913Z,0.73
2023-01-23T02:20:10.543Z,0.75
2023-01-23T02:23:01.304Z,0.86
2023-01-23T02:25:40.648Z,0.85
2023-01-23T02:28:07.207Z,0.86
2023-01-23T02:30:36.799Z,0.92
2023-01-23T02:33:10.004Z,0.95
2023-01-23T02:35:37.258Z,1.02
2023-01-23T02:38:05.712Z,1.03
2023-01-23T02:40:38.279Z,1.10
2023-01-23T02:43:06.684Z,1.10
2023-01-23T02:45:33.815Z,1.08
2023-01-23T02:48:06.074Z,1.07
2023-01-23T02:50:32.567Z,1.06
2023-01-23T02:52:58.965Z,1.02
2023-01-23T02:55:29.672Z,1.04
2023-01-23T02:58:16.819Z,1.06
2023-01-23T03:00:43.620Z,1.04
2023-01-23T03:03:13.064Z,1.06
2023-01-23T03:05:41.998Z,1.05
2023-01-23T03:08:08.619Z,1.05
2023-01-23T03:10:35.100Z,1.03
2023-01-23T03:13:03.440Z,1.03
2023-01-23T03:15:33.318Z,1.01
2023-01-23T03:18:00.099Z,1.01
2023-01-23T03:20:27.556Z,0.99
2023-01-23T03:22:56.828Z,1.00
2023-01-23T03:25:23.393Z,1.00
2023-01-23T03:27:49.791Z,0.98
2023-01-23T03:30:22.099Z,0.98
2023-01-23T03:32:48.639Z,1.00
2023-01-23T03:35:22.285Z,0.98
2023-01-23T03:37:49.665Z,1.01
2023-01-23T03:40:37.439Z,1.00
2023-01-23T03:43:04.971Z,0.98
2023-01-23T03:45:31.828Z,1.02
2023-01-23T03:47:58.424Z,1.03
2023-01-23T03:50:24.977Z,1.03
2023-01-23T03:52:51.333Z,1.02
2023-01-23T03:55:17.878Z,1.04
2023-01-23T03:57:46.673Z,1.05
2023-01-23T04:00:13.859Z,1.03
2023-01-23T04:02:41.308Z,1.04
2023-01-23T04:05:08.120Z,1.05
2023-01-23T04:07:34.590Z,1.06
2023-01-23T04:10:05.826Z,1.07
2023-01-23T04:12:32.230Z,1.06
2023-01-23T04:15:01.799Z,1.07
2023-01-23T04:17:28.195Z,1.07
2023-01-23T04:19:54.687Z,1.07
2023-01-23T04:22:21.039Z,1.07
2023-01-23T04:24:47.604Z,1.07
2023-01-23T04:27:13.975Z,1.10
2023-01-23T04:29:40.408Z,1.13
2023-01-23T04:32:11.835Z,1.13
2023-01-23T04:34:38.280Z,1.12
2023-01-23T04:37:04.615Z,1.17
2023-01-23T04:39:32.493Z,1.16
2023-01-23T04:41:59.126Z,1.16
2023-01-23T04:44:26.887Z,1.18
2023-01-23T04:46:54.155Z,1.19
2023-01-23T04:49:22.836Z,1.18
2023-01-23T04:51:50.105Z,1.21
2023-01-23T04:54:17.812Z,1.19
2023-01-23T04:56:47.344Z,1.16
2023-01-23T04:59:15.850Z,1.17
2023-01-23T05:01:42.527Z,1.17
2023-01-23T05:04:09.133Z,1.17
2023-01-23T05:06:35.536Z,1.17
2023-01-23T05:09:04.761Z,1.17
2023-01-23T05:11:31.425Z,1.20
2023-01-23T05:13:57.981Z,1.18
2023-01-23T05:16:24.568Z,1.16
2023-01-23T05:18:51.118Z,1.14
2023-01-23T05:21:20.079Z,1.13
2023-01-23T05:23:46.545Z,1.13
2023-01-23T05:26:12.913Z,1.16
2023-01-23T05:28:39.468Z,1.15
2023-01-23T05:31:08.200Z,1.17
2023-01-23T05:33:34.853Z,1.17
2023-01-23T05:36:04.071Z,1.13
2023-01-23T05:38:32.925Z,1.13
2023-01-23T05:40:59.319Z,1.10
2023-01-23T05:43:25.671Z,1.09
2023-01-23T05:45:52.164Z,1.12
2023-01-23T05:48:18.707Z,1.14
2023-01-23T05:50:47.283Z,1.11
2023-01-23T05:53:13.778Z,1.10
2023-01-23T05:55:40.375Z,1.13
2023-01-23T05:58:07.529Z,1.12
2023-01-23T06:00:34.073Z,1.09
2023-01-23T06:03:03.363Z,1.12
2023-01-23T06:05:30.181Z,1.12
2023-01-23T06:07:59.062Z,1.12
2023-01-23T06:10:25.707Z,1.11
2023-01-23T06:12:52.340Z,1.08
2023-01-23T06:15:21.633Z,1.08
2023-01-23T06:17:48.202Z,1.11
2023-01-23T06:20:14.584Z,1.09
2023-01-23T06:22:43.796Z,1.08
2023-01-23T06:25:10.240Z,1.01
2023-01-23T06:27:36.611Z,0.96
2023-01-23T06:30:08.627Z,0.88
2023-01-23T06:32:35.175Z,0.83
2023-01-23T06:35:02.294Z,0.71
2023-01-23T06:37:28.832Z,0.72
2023-01-23T06:39:55.240Z,0.72
2023-01-23T06:42:21.702Z,0.74
2023-01-23T06:44:48.186Z,0.66
2023-01-23T06:47:18.524Z,0.64
2023-01-23T06:49:44.957Z,0.65
2023-01-23T06:52:11.419Z,0.66
2023-01-23T06:54:40.288Z,0.68
2023-01-23T06:57:13.038Z,0.58
2023-01-23T06:59:39.565Z,0.50
2023-01-23T07:02:06.615Z,0.54
2023-01-23T07:04:33.402Z,0.48
2023-01-23T07:06:59.840Z,0.46
2023-01-23T07:09:26.239Z,0.46
2023-01-23T07:11:52.633Z,0.51
2023-01-23T07:14:19.038Z,0.52
2023-01-23T07:16:48.172Z,0.56
2023-01-23T07:19:14.905Z,0.59
2023-01-23T07:21:43.544Z,0.66
2023-01-23T07:24:10.105Z,0.63
2023-01-23T07:26:36.720Z,0.71
2023-01-23T07:29:03.126Z,0.66
2023-01-23T07:31:29.586Z,0.61
2023-01-23T07:33:56.020Z,0.69
2023-01-23T07:36:22.414Z,0.72
2023-01-23T07:38:51.354Z,0.78
2023-01-23T07:41:17.771Z,0.85
2023-01-23T07:43:44.420Z,0.89
2023-01-23T07:46:10.889Z,0.96
2023-01-23T07:48:37.887Z,0.96
2023-01-23T07:51:05.112Z,1.00
2023-01-23T07:53:31.993Z,1.05
2023-01-23T07:56:04.731Z,1.10
2023-01-23T07:58:31.103Z,1.16
2023-01-23T08:00:57.696Z,1.23
2023-01-23T08:03:24.354Z,1.27
2023-01-23T08:05:50.922Z,1.30
2023-01-23T08:08:17.406Z,1.33
2023-01-23T08:10:43.922Z,1.36
2023-01-23T08:13:14.915Z,1.39
2023-01-23T08:15:43.513Z,1.42
2023-01-23T08:18:12.260Z,1.43
2023-01-23T08:20:43.516Z,1.41
2023-01-23T08:23:10.035Z,1.40
2023-01-23T08:25:38.851Z,1.39
2023-01-23T08:28:05.241Z,1.41
2023-01-23T08:30:31.752Z,1.46
2023-01-23T08:32:58.647Z,1.47
2023-01-23T08:35:25.030Z,1.53
2023-01-23T08:37:51.423Z,1.57
2023-01-23T08:40:23.030Z,1.59
2023-01-23T08:42:49.556Z,1.67
2023-01-23T08:45:16.007Z,1.70
2023-01-23T08:47:42.441Z,1.77
2023-01-23T08:50:09.770Z,1.83
2023-01-23T08:52:36.217Z,1.88
2023-01-23T08:55:02.978Z,1.90
2023-01-23T08:57:29.445Z,1.91
2023-01-23T08:59:56.415Z,1.94
2023-01-23T09:02:23.083Z,1.93
2023-01-23T09:04:56.868Z,1.93
2023-01-23T09:07:23.443Z,2.00
2023-01-23T09:09:50.193Z,1.99
2023-01-23T09:12:16.654Z,1.99
2023-01-23T09:14:45.649Z,2.02
2023-01-23T09:17:12.214Z,2.04
2023-01-23T09:19:43.504Z,2.02
2023-01-23T09:22:10.094Z,2.07
2023-01-23T09:24:36.476Z,2.11
2023-01-23T09:27:03.047Z,2.12
2023-01-23T09:29:32.319Z,2.18
2023-01-23T09:32:02.050Z,2.17
2023-01-23T09:34:29.553Z,2.22
2023-01-23T09:36:56.575Z,2.23
2023-01-23T09:39:23.149Z,2.25
2023-01-23T09:41:49.827Z,2.27
2023-01-23T09:44:22.125Z,2.29
2023-01-23T09:46:55.735Z,2.29
2023-01-23T09:49:30.863Z,2.35
2023-01-23T09:52:17.569Z,2.44
2023-01-23T09:54:47.965Z,2.44
2023-01-23T09:57:18.892Z,2.51
2023-01-23T10:00:00.652Z,2.57
2023-01-23T10:02:27.868Z,2.60
2023-01-23T10:04:56.547Z,2.57
2023-01-23T10:07:49.362Z,2.58
2023-01-23T10:10:25.268Z,2.58
2023-01-23T10:13:07.875Z,2.58
2023-01-23T10:15:57.346Z,2.52
2023-01-23T10:18:28.131Z,2.53
2023-01-23T10:21:03.761Z,2.52
2023-01-23T10:23:41.952Z,2.47
2023-01-23T10:26:15.984Z,2.48
2023-01-23T10:28:44.344Z,2.53
2023-01-23T10:31:38.824Z,2.48
2023-01-23T10:34:18.542Z,2.48
2023-01-23T10:37:13.256Z,2.53
2023-01-23T10:39:49.067Z,2.48
2023-01-23T10:42:20.969Z,2.53
2023-01-23T10:44:47.936Z,2.53
2023-01-23T10:47:38.838Z,2.59
2023-01-23T10:50:07.956Z,2.59
2023-01-23T10:52:39.146Z,2.62
2023-01-23T10:55:28.602Z,2.66
2023-01-23T10:58:03.201Z,2.69
2023-01-23T11:00:39.595Z,2.68
2023-01-23T11:03:26.455Z,2.66
2023-01-23T11:06:02.098Z,2.65
2023-01-23T11:08:40.423Z,2.61
2023-01-23T11:11:15.960Z,2.63
2023-01-23T11:13:47.635Z,2.64
2023-01-23T11:16:19.814Z,2.67
2023-01-23T11:18:54.517Z,2.68
2023-01-23T11:21:28.479Z,2.70
2023-01-23T11:24:27.754Z,2.65
2023-01-23T11:27:15.655Z,2.66
2023-01-23T11:30:05.615Z,2.71
2023-01-23T11:32:38.199Z,2.75
2023-01-23T11:35:20.576Z,2.76
2023-01-23T11:37:49.339Z,2.74
2023-01-23T11:40:20.068Z,2.68
2023-01-23T11:42:47.402Z,2.69
2023-01-23T11:45:16.939Z,2.75
2023-01-23T11:47:55.247Z,2.79
2023-01-23T11:50:54.132Z,2.88
2023-01-23T11:53:41.493Z,2.92
2023-01-23T11:56:26.325Z,2.98
2023-01-23T11:58:58.754Z,2.97
2023-01-23T12:01:40.054Z,2.92
2023-01-23T12:04:12.306Z,2.86
2023-01-23T12:07:05.825Z,2.86
2023-01-23T12:10:13.801Z,2.89
2023-01-23T12:13:09.265Z,2.92
2023-01-23T12:16:03.290Z,2.99
2023-01-23T12:19:12.362Z,3.01
2023-01-23T12:22:00.175Z,3.07
2023-01-23T12:24:42.205Z,3.02
2023-01-23T12:27:17.657Z,3.01
2023-01-23T12:30:19.158Z,3.04
2023-01-23T12:33:12.348Z,3.06
2023-01-23T12:36:03.370Z,3.08
2023-01-23T12:38:41.597Z,3.13
2023-01-23T12:41:22.839Z,3.12
2023-01-23T12:44:21.100Z,3.07
2023-01-23T12:46:57.804Z,3.04
2023-01-23T12:49:31.772Z,3.02
2023-01-23T12:52:19.853Z,3.00
2023-01-23T12:54:56.038Z,2.97
2023-01-23T12:57:59.272Z,3.03
2023-01-23T13:01:03.952Z,3.03
2023-01-23T13:03:45.440Z,3.00
2023-01-23T13:07:00.384Z,3.03
2023-01-23T13:09:49.872Z,3.07
2023-01-23T13:12:25.332Z,3.08
2023-01-23T13:15:14.682Z,3.10
2023-01-23T13:17:51.801Z,3.12
2023-01-23T13:20:40.072Z,3.08
2023-01-23T13:23:32.875Z,3.07
2023-01-23T13:26:22.913Z,2.99
2023-01-23T13:28:55.210Z,2.99
2023-01-23T13:31:50.432Z,2.96
2023-01-23T13:34:19.227Z,2.99
2023-01-23T13:36:50.491Z,2.98
2023-01-23T13:39:16.955Z,2.93
2023-01-23T13:41:46.301Z,2.95
2023-01-23T13:44:40.290Z,3.01
2023-01-23T14:22:10.959Z,3.14
2023-01-23T14:24:49.897Z,3.14
2023-01-23T14:27:29.547Z,3.11
2023-01-23T14:30:15.740Z,3.12
2023-01-23T14:32:43.077Z,3.09
2023-01-23T14:35:23.341Z,3.05
2023-01-23T14:37:52.441Z,3.00
2023-01-23T14:40:27.646Z,2.92
2023-01-23T14:43:05.506Z,2.86
2023-01-23T14:45:33.616Z,2.83
2023-01-23T14:48:05.979Z,2.78
2023-01-23T14:50:33.524Z,2.78
2023-01-23T14:53:05.337Z,2.74
2023-01-23T14:55:37.619Z,2.69
2023-01-23T14:58:04.467Z,2.70
2023-01-23T15:00:35.655Z,2.74
2023-01-23T15:03:04.360Z,2.78
2023-01-23T15:05:32.825Z,2.83
2023-01-23T15:08:03.966Z,2.77
2023-01-23T15:10:47.002Z,2.76
2023-01-23T15:13:15.691Z,2.76
2023-01-23T15:15:46.738Z,2.79
2023-01-23T15:18:51.217Z,2.76
2023-01-23T15:21:29.320Z,2.71
2023-01-23T15:24:00.629Z,2.70
2023-01-23T15:26:34.572Z,2.70
2023-01-23T15:29:17.815Z,2.72
2023-01-23T15:31:53.007Z,2.67
2023-01-23T15:34:23.953Z,2.70
2023-01-23T15:37:11.526Z,2.65
2023-01-23T15:39:49.782Z,2.64
2023-01-23T15:42:16.197Z,2.63
2023-01-23T15:44:43.269Z,2.60
2023-01-23T15:47:10.543Z,2.53
2023-01-23T15:49:39.198Z,2.53
2023-01-23T15:52:26.400Z,2.50
2023-01-23T15:54:56.721Z,2.46
2023-01-23T15:57:23.195Z,2.40
2023-01-23T15:59:49.835Z,2.41
2023-01-23T16:02:29.944Z,2.36
2023-01-23T16:05:03.050Z,2.27
2023-01-23T16:07:35.278Z,2.26
2023-01-23T16:10:16.724Z,2.19
2023-01-23T16:12:43.966Z,2.06
2023-01-23T16:15:14.913Z,2.07
2023-01-23T16:17:41.443Z,1.94
2023-01-23T16:20:20.400Z,2.00
2023-01-23T16:22:54.073Z,1.87
2023-01-23T16:25:44.094Z,1.77
2023-01-23T16:28:20.131Z,1.72
2023-01-23T16:30:47.916Z,1.75
2023-01-23T16:33:14.690Z,1.67
2023-01-23T16:35:41.659Z,1.62
2023-01-23T16:38:20.899Z,1.60
2023-01-23T16:40:51.612Z,1.54
2023-01-23T16:43:17.965Z,1.40
2023-01-23T16:45:44.929Z,1.57
2023-01-23T16:48:21.670Z,1.54
2023-01-23T16:50:56.680Z,1.48
2023-01-23T16:53:29.490Z,1.54
2023-01-23T16:55:57.564Z,1.40
2023-01-23T16:58:27.545Z,1.31
2023-01-23T17:01:00.122Z,1.25
2023-01-23T17:03:29.591Z,1.30
2023-01-23T17:05:56.102Z,1.26
2023-01-23T17:08:25.072Z,1.16
2023-01-23T17:10:56.611Z,1.03
2023-01-23T17:13:23.469Z,1.08
2023-01-23T17:15:52.918Z,1.20
2023-01-23T17:18:26.029Z,1.30
2023-01-23T17:20:54.816Z,1.26
2023-01-23T17:23:22.140Z,1.27
2023-01-23T17:25:59.884Z,1.26
2023-01-23T17:28:27.694Z,1.18
2023-01-23T17:30:55.430Z,1.22
2023-01-23T17:33:27.780Z,1.15
2023-01-23T17:35:54.395Z,1.09
2023-01-23T17:38:23.490Z,1.15
2023-01-23T17:40:50.519Z,1.17
2023-01-23T17:43:18.362Z,1.25
2023-01-23T17:45:47.516Z,1.11
2023-01-23T17:48:17.733Z,1.16
2023-01-23T17:50:46.513Z,1.17
2023-01-23T17:53:15.106Z,1.07
2023-01-23T17:55:43.679Z,1.14
2023-01-23T17:58:10.264Z,1.02
2023-01-23T18:00:39.104Z,1.20
2023-01-23T18:03:07.967Z,1.35
2023-01-23T18:05:34.476Z,1.23
2023-01-23T18:08:00.862Z,1.32
2023-01-23T18:10:29.809Z,1.40
2023-01-23T18:13:00.090Z,1.40
2023-01-23T18:15:47.721Z,1.38
2023-01-23T18:18:26.254Z,1.39
2023-01-23T18:20:54.756Z,1.34
2023-01-23T18:23:23.128Z,1.41
2023-01-23T18:26:16.423Z,1.50
2023-01-23T18:28:58.113Z,1.49
2023-01-23T18:32:00.775Z,1.54
2023-01-23T18:34:58.427Z,1.55
2023-01-23T18:37:46.833Z,1.62
2023-01-23T18:40:28.932Z,1.62
2023-01-23T18:43:03.764Z,1.60
2023-01-23T18:45:33.327Z,1.60
2023-01-23T18:48:00.247Z,1.62
2023-01-23T18:50:27.156Z,1.61
2023-01-23T18:53:12.146Z,1.70
2023-01-23T18:55:49.019Z,1.71
2023-01-23T18:58:19.592Z,1.78
2023-01-23T19:01:23.851Z,1.83
2023-01-23T19:03:50.796Z,1.88
2023-01-23T19:06:23.144Z,1.92
2023-01-23T19:08:50.728Z,1.89
2023-01-23T19:11:38.833Z,2.00
2023-01-23T19:14:24.539Z,1.99
2023-01-23T19:17:03.911Z,2.01
2023-01-23T19:19:49.184Z,2.08
2023-01-23T19:22:18.848Z,2.16
2023-01-23T19:24:45.602Z,2.20
2023-01-23T19:27:23.516Z,2.16
2023-01-23T19:29:50.142Z,2.15
2023-01-23T19:32:17.004Z,2.23
2023-01-23T19:34:43.601Z,2.22
2023-01-23T19:37:10.068Z,2.18
2023-01-23T19:39:36.582Z,2.22
2023-01-23T19:42:03.076Z,2.21
2023-01-23T19:44:30.181Z,2.23
2023-01-23T19:46:56.744Z,2.26
2023-01-23T19:49:25.115Z,2.26
2023-01-23T19:51:51.758Z,2.23
2023-01-23T19:54:23.715Z,2.24
2023-01-23T19:56:50.587Z,2.21
2023-01-23T19:59:19.610Z,2.22
2023-01-23T20:01:49.567Z,2.25
2023-01-23T20:04:19.930Z,2.20
2023-01-23T20:06:51.607Z,2.20
2023-01-23T20:09:18.299Z,2.21
2023-01-23T20:11:47.637Z,2.21
2023-01-23T20:14:14.259Z,2.19
2023-01-23T20:16:42.891Z,2.22
2023-01-23T20:19:16.817Z,2.22
2023-01-23T20:21:43.586Z,2.33
2023-01-23T20:24:10.317Z,2.30
2023-01-23T20:26:37.684Z,2.34
2023-01-23T20:29:05.566Z,2.33
2023-01-23T20:31:36.015Z,2.32
2023-01-23T20:34:02.703Z,2.32
2023-01-23T20:36:29.272Z,2.31
2023-01-23T20:38:56.736Z,2.31
2023-01-23T20:41:23.223Z,2.30
2023-01-23T20:43:49.905Z,2.26
2023-01-23T20:46:20.422Z,2.26
2023-01-23T20:48:47.208Z,2.24
2023-01-23T20:51:16.216Z,2.25
2023-01-23T20:53:43.235Z,2.22
2023-01-23T20:56:18.848Z,2.21
2023-01-23T20:59:06.562Z,2.24
2023-01-23T21:02:01.446Z,2.24
2023-01-23T21:04:33.045Z,2.29
2023-01-23T21:07:06.060Z,2.30
2023-01-23T21:09:32.474Z,2.27
2023-01-23T21:11:59.059Z,2.23
2023-01-23T21:14:25.516Z,2.24
2023-01-23T21:16:52.005Z,2.23
2023-01-23T21:19:21.365Z,2.24
2023-01-23T21:21:48.192Z,2.28
2023-01-23T21:24:14.664Z,2.28
2023-01-23T21:26:44.052Z,2.32
2023-01-23T21:29:11.007Z,2.28
2023-01-23T21:31:41.496Z,2.31
2023-01-23T21:34:11.579Z,2.37
2023-01-23T21:36:41.066Z,2.48
2023-01-23T21:39:13.217Z,2.44
2023-01-23T21:41:39.801Z,2.45
2023-01-23T21:44:06.307Z,2.49
2023-01-23T21:46:35.167Z,2.48
2023-01-23T21:49:01.581Z,2.52
2023-01-23T21:51:28.004Z,2.53
2023-01-23T21:53:54.664Z,2.52
2023-01-23T21:56:22.943Z,2.52
2023-01-23T21:58:50.338Z,2.52
2023-01-23T22:01:32.086Z,2.48
2023-01-23T22:04:18.025Z,2.51
2023-01-23T22:06:45.636Z,2.55
2023-01-23T22:09:18.108Z,2.53
2023-01-23T22:11:47.533Z,2.54
2023-01-23T22:14:14.998Z,2.56
2023-01-23T22:16:49.371Z,2.53
2023-01-23T22:19:20.098Z,2.58
2023-01-23T22:21:48.296Z,2.58
2023-01-23T22:24:15.125Z,2.60
2023-01-23T22:26:41.846Z,2.61
2023-01-23T22:29:08.749Z,2.65
2023-01-23T22:31:37.622Z,2.68
2023-01-23T22:34:11.361Z,2.68
2023-01-23T22:36:37.784Z,2.68
2023-01-23T22:39:04.478Z,2.63
2023-01-23T22:41:33.284Z,2.62
2023-01-23T22:44:02.034Z,2.58
2023-01-23T22:46:28.941Z,2.59
2023-01-23T22:48:56.084Z,2.59
2023-01-23T22:51:28.226Z,2.58
2023-01-23T22:53:55.727Z,2.57
2023-01-23T22:56:23.843Z,2.58
2023-01-23T22:58:52.467Z,2.58
2023-01-23T23:01:27.300Z,2.55
2023-01-23T23:03:55.985Z,2.53
2023-01-23T23:06:22.443Z,2.52
2023-01-23T23:08:49.429Z,2.51
2023-01-23T23:11:18.934Z,2.54
2023-01-23T23:13:46.040Z,2.50
2023-01-23T23:16:18.374Z,2.52
2023-01-23T23:18:52.581Z,2.57
2023-01-23T23:21:21.753Z,2.53
2023-01-23T23:23:48.506Z,2.55
2023-01-23T23:26:15.814Z,2.57
2023-01-23T23:28:42.434Z,2.63
2023-01-23T23:31:09.859Z,2.60
2023-01-23T23:33:36.741Z,2.71
2023-01-23T23:36:03.304Z,2.68
2023-01-23T23:38:29.738Z,2.67
2023-01-23T23:41:01.995Z,2.66
2023-01-23T23:43:31.167Z,2.65
2023-01-23T23:46:01.725Z,2.65
2023-01-23T23:48:30.092Z,2.64
2023-01-23T23:51:00.333Z,2.65
2023-01-23T23:53:27.639Z,2.63
2023-01-23T23:55:54.215Z,2.60
2023-01-23T23:58:20.863Z,2.64
